Time;durP1;ratioP1;P1;durP2;ratioP2;P2;SDS_P1;SDS_P2;PMS_P1;PMS_P2;Temp;Humidity;BMP_temperature;BMP_pressure;BME280_temperature;BME280_humidity;BME280_pressure;Samples;Min_cycle;Max_cycle;Signal;HPM_P1;HPM_P2
2022/12/26 00:00:15;;;;;;;3.37;2.50;;;2.20;99.90;;;;;;4978613;28;20190;-85
2022/12/26 00:02:41;;;;;;;5.63;3.90;;;;;;;;;;4980417;28;20215;-85
2022/12/26 00:05:07;;;;;;;6.13;3.53;;;2.20;99.90;;;;;;4996053;28;20725;-85
2022/12/26 00:07:33;;;;;;;7.53;3.70;;;2.20;99.90;;;;;;4980454;28;20265;-84
2022/12/26 00:09:59;;;;;;;8.57;3.60;;;2.20;99.90;;;;;;4997692;28;20184;-85
2022/12/26 00:12:24;;;;;;;6.17;3.60;;;2.20;99.90;;;;;;4979655;28;20563;-85
2022/12/26 00:14:50;;;;;;;4.00;3.33;;;;;;;;;;4978277;28;20213;-85
2022/12/26 00:17:16;;;;;;;3.33;2.30;;;;;;;;;;4984967;28;20220;-85
2022/12/26 00:19:42;;;;;;;5.03;3.63;;;2.20;99.90;;;;;;4980202;28;20551;-85
2022/12/26 00:22:08;;;;;;;4.57;3.57;;;;;;;;;;4979546;28;20188;-85
2022/12/26 00:24:34;;;;;;;5.73;4.40;;;2.20;99.90;;;;;;4979872;28;20344;-85
2022/12/26 00:27:00;;;;;;;3.43;3.00;;;;;;;;;;4979443;28;20643;-85
2022/12/26 00:29:25;;;;;;;6.40;3.03;;;2.30;99.90;;;;;;4995523;28;20182;-85
2022/12/26 00:31:51;;;;;;;4.30;3.67;;;2.30;99.90;;;;;;4979252;28;20642;-85
2022/12/26 00:34:17;;;;;;;4.33;3.93;;;;;;;;;;4996264;28;20228;-85
2022/12/26 00:36:43;;;;;;;3.20;2.80;;;2.30;99.90;;;;;;4979479;28;20543;-85
2022/12/26 00:39:09;;;;;;;6.37;4.60;;;2.30;99.90;;;;;;4962658;28;20291;-85
2022/12/26 00:41:34;;;;;;;5.87;4.10;;;2.30;99.90;;;;;;4995548;28;20174;-85
2022/12/26 00:44:02;;;;;;;9.03;4.03;;;;;;;;;;4979442;28;20637;-85
2022/12/26 00:46:27;;;;;;;10.00;5.43;;;2.30;99.90;;;;;;4978912;28;20243;-85
2022/12/26 00:48:54;;;;;;;9.57;4.10;;;2.30;99.90;;;;;;4995343;28;20194;-85
2022/12/26 00:51:20;;;;;;;5.50;4.53;;;2.30;99.90;;;;;;4995742;28;20341;-85
2022/12/26 00:53:45;;;;;;;6.43;4.87;;;2.30;99.90;;;;;;4996610;28;20177;-85
2022/12/26 00:56:12;;;;;;;5.80;4.50;;;;;;;;;;4995010;28;20566;-86
2022/12/26 00:58:40;;;;;;;10.37;4.33;;;;;;;;;;4995390;28;20192;-85
2022/12/26 01:01:19;;;;;;;9.23;5.83;;;2.30;99.90;;;;;;4996478;28;20178;-85
2022/12/26 01:03:46;;;;;;;5.20;4.40;;;2.40;99.90;;;;;;4995352;28;20216;-85
2022/12/26 01:06:12;;;;;;;9.67;5.83;;;2.40;99.90;;;;;;4995761;28;20216;-87
2022/12/26 01:08:38;;;;;;;13.57;4.47;;;2.40;99.90;;;;;;4992101;28;20247;-87
2022/12/26 01:11:12;;;;;;;5.00;3.67;;;2.40;99.90;;;;;;4995183;28;20192;-84
2022/12/26 01:13:38;;;;;;;11.30;5.87;;;2.40;99.90;;;;;;4995857;28;20228;-85
2022/12/26 01:16:05;;;;;;;5.37;3.07;;;2.40;99.90;;;;;;4978849;28;20216;-84
2022/12/26 01:18:31;;;;;;;5.47;4.60;;;2.40;99.90;;;;;;4995824;28;20180;-84
2022/12/26 01:20:58;;;;;;;4.57;3.43;;;2.50;99.90;;;;;;4977022;28;20749;-84
2022/12/26 01:23:24;;;;;;;5.13;3.70;;;2.50;99.90;;;;;;4958952;28;20179;-85
2022/12/26 01:25:50;;;;;;;7.50;5.00;;;2.60;99.90;;;;;;4943455;28;20192;-84
2022/12/26 01:28:15;;;;;;;4.93;4.17;;;2.60;99.90;;;;;;4943084;28;20654;-85
2022/12/26 01:30:41;;;;;;;4.83;3.53;;;2.60;99.90;;;;;;4959380;28;20545;-85
2022/12/26 01:33:06;;;;;;;7.20;3.37;;;2.60;99.90;;;;;;4990684;28;20257;-85
2022/12/26 01:35:33;;;;;;;5.47;3.63;;;2.60;99.90;;;;;;4977904;28;20745;-85
2022/12/26 01:37:58;;;;;;;9.47;4.17;;;2.60;99.90;;;;;;4978575;28;20187;-85
2022/12/26 01:40:24;;;;;;;6.33;4.20;;;0.80;99.90;;;;;;4961666;28;20241;-85
2022/12/26 01:42:50;;;;;;;8.70;5.73;;;2.60;99.90;;;;;;4977851;28;20188;-85
2022/12/26 01:45:28;;;;;;;4.67;4.23;;;2.60;99.90;;;;;;4978230;28;20199;-85
2022/12/26 01:48:03;;;;;;;12.63;4.97;;;2.60;99.90;;;;;;4995724;28;20178;-84
2022/12/26 01:50:36;;;;;;;6.37;4.37;;;2.60;99.90;;;;;;4995178;28;20192;-85
2022/12/26 01:53:09;;;;;;;8.87;5.10;;;2.70;99.90;;;;;;4995441;28;20181;-85
2022/12/26 01:55:36;;;;;;;10.00;5.93;;;2.60;99.90;;;;;;4994993;28;20220;-83
2022/12/26 01:58:08;;;;;;;12.27;4.83;;;2.70;99.90;;;;;;4995411;28;20186;-83
2022/12/26 02:00:36;;;;;;;3.57;3.27;;;2.70;99.90;;;;;;4979145;28;20261;-85
2022/12/26 02:05:47;;;;;;;6.43;3.00;;;2.80;99.90;;;;;;4976049;28;20186;-84
2022/12/26 02:08:24;;;;;;;5.67;3.67;;;2.80;99.90;;;;;;4958784;28;20178;-84
2022/12/26 02:11:13;;;;;;;10.97;3.77;;;2.80;99.90;;;;;;4975936;28;20204;-84
2022/12/26 02:13:40;;;;;;;5.87;3.70;;;2.80;99.90;;;;;;4974380;28;20182;-83
2022/12/26 02:16:08;;;;;;;7.57;4.03;;;2.80;99.90;;;;;;4974624;28;20237;-84
2022/12/26 02:18:34;;;;;;;2.53;2.33;;;;;;;;;;4975645;28;20177;-84
2022/12/26 02:21:10;;;;;;;5.83;4.03;;;2.80;99.90;;;;;;4976012;28;20261;-85
2022/12/26 02:23:54;;;;;;;7.37;6.43;;;2.90;99.90;;;;;;4973844;28;20191;-84
2022/12/26 02:26:50;;;;;;;6.17;2.63;;;2.90;99.90;;;;;;4974370;28;20193;-85
2022/12/26 02:29:37;;;;;;;5.37;3.47;;;2.90;99.90;;;;;;4975012;28;20202;-85
2022/12/26 02:32:21;;;;;;;4.40;2.33;;;2.90;99.90;;;;;;4993610;28;20192;-85
2022/12/26 02:35:04;;;;;;;3.53;3.13;;;3.00;99.90;;;;;;4977691;28;20240;-85
2022/12/26 02:37:55;;;;;;;3.27;2.83;;;3.00;99.90;;;;;;4977329;28;20187;-85
2022/12/26 02:40:31;;;;;;;6.43;2.80;;;3.00;99.90;;;;;;4976993;28;20699;-85
2022/12/26 02:43:05;;;;;;;4.20;2.27;;;3.00;99.90;;;;;;4994645;28;20171;-85
2022/12/26 02:48:54;;;;;;;2.33;1.63;;;3.00;99.90;;;;;;4976059;28;20676;-85
2022/12/26 03:15:04;;;;;;;4.27;3.03;;;3.00;99.90;;;;;;4994656;28;20304;-85
2022/12/26 03:17:39;;;;;;;4.07;2.83;;;3.00;99.90;;;;;;4985893;28;20212;-86
2022/12/26 03:20:10;;;;;;;5.57;2.80;;;3.00;99.90;;;;;;4994448;28;20197;-85
2022/12/26 03:22:51;;;;;;;6.53;3.07;;;3.00;99.90;;;;;;4976547;28;20185;-86
2022/12/26 03:28:26;;;;;;;4.83;3.37;;;2.90;99.90;;;;;;4994982;28;20551;-86
2022/12/26 03:30:54;;;;;;;7.83;4.23;;;2.90;99.90;;;;;;4994073;28;20183;-85
2022/12/26 03:36:48;;;;;;;8.10;4.70;;;2.90;99.90;;;;;;4957331;28;20222;-85
2022/12/26 04:20:56;;;;;;;6.57;3.37;;;3.00;99.90;;;;;;4986643;28;20208;-85
2022/12/26 04:46:29;;;;;;;5.27;2.70;;;2.80;99.90;;;;;;4980989;28;20278;-86
2022/12/26 04:51:41;;;;;;;7.70;2.50;;;;;;;;;;4994604;28;20180;-86
2022/12/26 04:54:07;;;;;;;3.00;2.70;;;2.80;99.90;;;;;;4996559;28;20184;-85
2022/12/26 04:56:33;;;;;;;4.77;2.20;;;2.80;99.90;;;;;;4996727;28;20686;-85
2022/12/26 04:58:59;;;;;;;2.83;2.27;;;;;;;;;;4962708;28;20275;-86
2022/12/26 05:09:48;;;;;;;3.87;2.80;;;2.80;99.90;;;;;;4978743;28;20196;-85
2022/12/26 05:12:14;;;;;;;2.33;2.10;;;;;;;;;;4977945;28;20200;-86
2022/12/26 05:14:40;;;;;;;4.70;3.53;;;2.80;99.90;;;;;;4977967;28;20669;-86
2022/12/26 05:31:00;;;;;;;4.93;2.07;;;;;;;;;;4976284;28;20182;-89
2022/12/26 05:36:16;;;;;;;4.07;2.90;;;2.90;99.90;;;;;;4976449;28;20563;-88
2022/12/26 05:38:43;;;;;;;5.13;2.80;;;;;;;;;;4976048;28;20257;-89
2022/12/26 05:41:09;;;;;;;3.60;2.60;;;;;;;;;;4977881;28;20284;-88
2022/12/26 05:43:35;;;;;;;4.57;3.27;;;;;;;;;;4976614;28;20649;-89
2022/12/26 05:46:01;;;;;;;2.27;2.07;;;;;;;;;;4987798;28;20209;-89
2022/12/26 05:48:27;;;;;;;2.60;2.40;;;;;;;;;;4977912;28;20654;-88
2022/12/26 05:51:00;;;;;;;3.07;2.13;;;2.90;99.90;;;;;;4977652;28;20195;-88
2022/12/26 05:53:29;;;;;;;1.67;1.57;;;;;;;;;;4994096;28;20196;-87
2022/12/26 05:55:55;;;;;;;3.87;1.87;;;;;;;;;;4976962;28;20219;-88
2022/12/26 05:58:24;;;;;;;3.13;2.77;;;2.90;99.90;;;;;;4977132;28;20324;-88
2022/12/26 06:00:50;;;;;;;6.73;3.03;;;;;;;;;;4976776;28;20181;-88
2022/12/26 06:03:16;;;;;;;11.27;4.33;;;;;;;;;;4977117;28;20185;-88
2022/12/26 06:05:42;;;;;;;5.47;3.17;;;;;;;;;;4995135;28;20181;-88
2022/12/26 06:08:08;;;;;;;3.00;2.80;;;;;;;;;;4985796;28;20184;-88
2022/12/26 06:10:37;;;;;;;2.87;2.67;;;2.90;99.90;;;;;;4981326;28;20328;-88
2022/12/26 06:13:03;;;;;;;2.43;1.83;;;;;;;;;;4974082;28;20692;-88
2022/12/26 06:15:29;;;;;;;3.10;2.80;;;;;;;;;;4985767;28;20753;-89
2022/12/26 06:17:55;;;;;;;3.50;2.53;;;;;;;;;;4986356;28;20199;-89
2022/12/26 06:20:21;;;;;;;3.57;2.80;;;;;;;;;;4988337;28;20194;-88
2022/12/26 06:22:47;;;;;;;4.30;1.77;;;;;;;;;;4974199;28;20721;-89
2022/12/26 06:25:13;;;;;;;4.00;1.83;;;;;;;;;;4986104;28;20261;-89
2022/12/26 06:27:41;;;;;;;2.67;2.47;;;3.00;99.90;;;;;;4992686;28;20595;-86
2022/12/26 06:30:08;;;;;;;17.43;3.83;;;2.90;99.90;;;;;;4989986;28;20673;-85
2022/12/26 06:32:34;;;;;;;3.57;2.60;;;;;;;;;;4971792;28;20275;-88
2022/12/26 06:35:00;;;;;;;3.40;3.10;;;;;;;;;;4991530;28;20244;-88
2022/12/26 06:37:26;;;;;;;2.77;2.00;;;;;;;;;;4987561;28;20266;-89
2022/12/26 06:39:52;;;;;;;2.30;2.10;;;;;;;;;;4988200;28;20236;-89
2022/12/26 06:42:18;;;;;;;2.93;2.60;;;;;;;;;;4991907;28;20348;-88
2022/12/26 06:44:44;;;;;;;4.53;2.13;;;;;;;;;;4991185;28;20288;-86
2022/12/26 06:47:10;;;;;;;1.97;1.80;;;;;;;;;;4993857;28;20193;-88
2022/12/26 06:49:36;;;;;;;4.27;2.63;;;;;;;;;;4961046;28;20194;-85
2022/12/26 06:52:02;;;;;;;7.53;2.53;;;;;;;;;;4975336;28;20185;-85
2022/12/26 06:54:28;;;;;;;2.03;1.77;;;;;;;;;;4994902;28;20883;-86
2022/12/26 06:56:54;;;;;;;4.03;1.70;;;;;;;;;;4976744;28;20182;-87
2022/12/26 06:59:20;;;;;;;4.23;2.97;;;;;;;;;;4994151;28;20567;-86
2022/12/26 07:01:46;;;;;;;4.97;2.90;;;;;;;;;;4962214;28;20190;-87
2022/12/26 07:04:13;;;;;;;2.10;1.97;;;;;;;;;;4992546;28;20192;-87
2022/12/26 07:06:39;;;;;;;2.63;2.43;;;;;;;;;;4976873;28;20247;-87
2022/12/26 07:09:13;;;;;;;1.67;1.57;;;3.00;99.90;;;;;;4978132;28;20185;-86
2022/12/26 07:11:41;;;;;;;3.07;2.37;;;3.00;99.90;;;;;;4989976;28;20635;-88
2022/12/26 07:14:08;;;;;;;3.07;2.30;;;3.00;99.90;;;;;;4995089;28;20211;-87
2022/12/26 07:16:35;;;;;;;4.47;2.67;;;3.00;99.90;;;;;;4991594;28;20214;-86
2022/12/26 07:19:01;;;;;;;3.00;2.53;;;;;;;;;;4974205;28;20224;-86
2022/12/26 07:21:27;;;;;;;2.93;2.70;;;3.00;99.90;;;;;;4964380;28;20552;-88
2022/12/26 07:23:53;;;;;;;4.87;2.67;;;3.10;99.90;;;;;;4969212;28;20281;-86
2022/12/26 07:26:19;;;;;;;2.57;2.03;;;;;;;;;;4977456;28;20257;-86
2022/12/26 07:28:46;;;;;;;8.83;5.93;;;;;;;;;;4994170;28;20282;-87
2022/12/26 07:31:17;;;;;;;7.43;5.87;;;3.10;99.90;;;;;;4976193;28;20190;-87
2022/12/26 07:33:47;;;;;;;10.67;4.83;;;3.20;99.90;;;;;;4960259;28;20216;-86
2022/12/26 07:36:13;;;;;;;13.03;8.83;;;;;;;;;;4986424;28;20304;-86
2022/12/26 07:38:39;;;;;;;16.60;10.37;;;3.20;99.90;;;;;;4975970;28;20188;-85
2022/12/26 07:41:56;;;;;;;20.33;12.83;;;3.30;99.90;;;;;;4959251;28;20312;-86
2022/12/26 07:43:51;;;;;;;7.90;6.67;;;3.30;99.90;;;;;;4980947;28;20201;-86
2022/12/26 07:46:17;;;;;;;11.97;7.40;;;3.30;99.90;;;;;;4980625;28;20201;-87
2022/12/26 07:48:43;;;;;;;5.77;5.10;;;;;;;;;;4961286;28;20193;-86
2022/12/26 07:51:09;;;;;;;6.97;6.27;;;;;;;;;;4987003;28;20204;-86
2022/12/26 07:53:35;;;;;;;11.00;6.17;;;;;;;;;;4976371;28;20281;-87
2022/12/26 07:56:01;;;;;;;8.43;5.00;;;;;;;;;;4992886;28;20218;-87
2022/12/26 07:58:28;;;;;;;7.13;4.30;;;;;;;;;;4992494;28;20192;-86
2022/12/26 08:00:54;;;;;;;3.57;2.83;;;;;;;;;;4985334;28;20190;-88
2022/12/26 08:03:20;;;;;;;6.53;4.23;;;;;;;;;;4981121;28;20228;-87
2022/12/26 08:05:49;;;;;;;7.50;3.60;;;3.50;99.90;;;;;;4974614;28;20220;-87
2022/12/26 08:08:15;;;;;;;2.53;2.33;;;;;;;;;;4972054;28;20208;-87
2022/12/26 08:10:41;;;;;;;5.33;4.00;;;;;;;;;;4979807;28;20255;-87
2022/12/26 08:13:08;;;;;;;4.37;3.17;;;;;;;;;;4984357;28;20190;-87
2022/12/26 08:15:34;;;;;;;5.10;3.90;;;;;;;;;;4976153;28;20224;-86
2022/12/26 08:18:00;;;;;;;10.83;7.43;;;;;;;;;;4991485;28;20203;-89
2022/12/26 08:20:26;;;;;;;4.63;4.07;;;;;;;;;;4970473;28;20194;-89
2022/12/26 08:22:52;;;;;;;4.03;3.23;;;;;;;;;;4993465;28;20185;-89
2022/12/26 08:25:18;;;;;;;12.30;4.50;;;;;;;;;;4997924;28;20200;-89
2022/12/26 08:27:44;;;;;;;8.03;4.20;;;;;;;;;;5000250;28;20195;-89
2022/12/26 08:30:10;;;;;;;5.43;4.03;;;3.70;99.90;;;;;;4999394;28;20558;-89
2022/12/26 08:32:39;;;;;;;7.07;4.83;;;;;;;;;;4987436;28;20206;-89
2022/12/26 08:35:05;;;;;;;4.80;3.33;;;;;;;;;;4972126;28;20214;-88
2022/12/26 08:37:32;;;;;;;8.83;5.03;;;;;;;;;;5002989;28;20189;-88
2022/12/26 08:39:58;;;;;;;3.07;2.87;;;;;;;;;;4984586;28;20499;-88
2022/12/26 08:42:24;;;;;;;5.20;3.23;;;;;;;;;;5001656;28;20634;-88
2022/12/26 08:44:50;;;;;;;5.80;3.57;;;;;;;;;;4999715;28;20235;-88
2022/12/26 08:47:16;;;;;;;2.53;2.33;;;;;;;;;;4983231;28;20195;-88
2022/12/26 08:49:45;;;;;;;6.33;3.97;;;4.10;99.90;;;;;;5007095;28;20248;-88
2022/12/26 08:52:14;;;;;;;4.83;2.07;;;;;;;;;;4988986;28;20186;-90
2022/12/26 08:54:40;;;;;;;2.07;1.93;;;;;;;;;;4976601;28;20194;-89
2022/12/26 08:57:14;;;;;;;5.87;3.53;;;;;;;;;;5006771;28;20239;-89
2022/12/26 08:59:40;;;;;;;3.23;2.93;;;;;;;;;;4990621;28;20181;-90
2022/12/26 09:02:25;;;;;;;;;;;;;;;;;;;;;
2022/12/26 09:04:54;;;;;;;5.83;3.17;;;;;;;;;;4993912;28;20245;-89
2022/12/26 09:07:28;;;;;;;5.00;4.07;;;6.90;99.90;;;;;;4987655;28;20269;-89
2022/12/26 09:10:06;;;;;;;3.77;3.00;;;;;;;;;;4992302;28;20190;-91
2022/12/26 09:13:15;;;;;;;6.20;3.63;;;4.70;99.90;;;;;;5009756;28;20182;-90
2022/12/26 09:15:42;;;;;;;4.77;3.00;;;4.80;99.90;;;;;;5009328;28;20212;-90
2022/12/26 09:18:28;;;;;;;;;;;;;;;;;;;;;
2022/12/26 09:21:20;;;;;;;6.57;3.57;;;4.90;99.90;;;;;;4974768;28;20290;-91
2022/12/26 09:24:38;;;;;;;9.63;2.90;;;4.90;99.90;;;;;;5006690;28;20219;-92
2022/12/26 09:27:06;;;;;;;5.80;3.37;;;;;;;;;;5001427;28;20616;-90
2022/12/26 09:29:32;;;;;;;8.37;4.27;;;;;;;;;;4988407;28;20208;-90
2022/12/26 09:32:01;;;;;;;6.43;5.03;;;;;;;;;;4989006;28;20218;-89
2022/12/26 09:34:27;;;;;;;5.73;3.03;;;;;;;;;;4982969;28;20191;-89
2022/12/26 09:36:55;;;;;;;2.77;2.23;;;;;;;;;;4967801;28;20376;-91
2022/12/26 09:39:21;;;;;;;4.77;2.60;;;;;;;;;;5000760;28;20243;-89
2022/12/26 09:42:22;;;;;;;3.93;2.57;;;5.10;99.90;;;;;;5000792;28;20261;-90
2022/12/26 09:45:00;;;;;;;2.97;2.33;;;5.10;99.90;;;;;;4986241;28;20189;-90
2022/12/26 09:47:35;;;;;;;7.37;1.87;;;5.60;99.90;;;;;;4984290;28;20188;-91
2022/12/26 09:50:22;;;;;;;4.90;3.07;;;5.50;99.90;;;;;;4999625;28;20181;-90
2022/12/26 09:53:09;;;;;;;2.83;2.50;;;5.20;99.90;;;;;;4985261;28;20193;-90
2022/12/26 09:55:43;;;;;;;2.47;2.27;;;5.60;99.90;;;;;;4989254;28;20214;-90
2022/12/26 09:58:34;;;;;;;12.70;3.00;;;5.30;99.90;;;;;;4999380;28;20200;-89
2022/12/26 10:01:19;;;;;;;2.43;2.13;;;5.40;99.90;;;;;;4986302;28;20181;-88
2022/12/26 10:03:55;;;;;;;3.53;2.63;;;5.50;99.90;;;;;;5001043;28;20181;-90
2022/12/26 10:06:47;;;;;;;3.27;2.60;;;7.70;99.90;;;;;;4979846;28;20193;-88
2022/12/26 10:09:50;;;;;;;3.33;2.20;;;5.60;99.90;;;;;;4984366;28;20186;-89
2022/12/26 10:12:55;;;;;;;4.30;2.37;;;5.80;99.90;;;;;;5003657;28;20181;-88
2022/12/26 10:15:21;;;;;;;2.73;2.53;;;;;;;;;;5003939;28;20217;-88
2022/12/26 10:18:14;;;;;;;3.73;2.57;;;5.50;99.90;;;;;;4992021;28;20194;-90
2022/12/26 10:21:02;;;;;;;2.50;2.30;;;5.30;99.90;;;;;;4992492;28;20182;-88
2022/12/26 10:23:39;;;;;;;8.03;2.67;;;6.10;99.90;;;;;;5008131;28;20190;-89
2022/12/26 10:26:22;;;;;;;4.07;2.17;;;5.80;99.90;;;;;;5009985;28;20244;-89
2022/12/26 10:29:01;;;;;;;8.30;2.87;;;5.70;99.90;;;;;;5007856;28;20174;-89
2022/12/26 10:31:43;;;;;;;2.20;1.97;;;5.60;99.90;;;;;;5004205;28;20185;-88
2022/12/26 10:34:40;;;;;;;2.57;1.97;;;5.60;99.90;;;;;;4989886;28;20197;-89
2022/12/26 10:37:12;;;;;;;2.23;2.03;;;5.70;99.90;;;;;;5008209;28;20217;-90
2022/12/26 10:39:53;;;;;;;1.67;1.57;;;5.70;99.90;;;;;;4990078;28;20225;-89
2022/12/26 10:42:43;;;;;;;3.13;2.67;;;5.80;99.90;;;;;;4988907;28;20635;-90
2022/12/26 10:45:17;;;;;;;3.50;2.23;;;5.80;99.90;;;;;;4984238;28;20194;-90
2022/12/26 10:47:48;;;;;;;3.17;2.23;;;5.90;99.90;;;;;;4984062;28;20269;-89
2022/12/26 10:50:22;;;;;;;2.13;1.80;;;6.00;99.90;;;;;;4988188;28;20607;-90
2022/12/26 10:52:56;;;;;;;3.37;2.23;;;6.00;99.90;;;;;;4986834;28;20201;-89
2022/12/26 10:55:27;;;;;;;2.50;2.30;;;4.40;99.90;;;;;;4988133;28;20283;-89
2022/12/26 10:58:14;;;;;;;3.80;3.43;;;6.20;99.90;;;;;;4984125;28;20186;-89
2022/12/26 11:00:46;;;;;;;2.37;1.83;;;6.10;99.90;;;;;;4985983;28;20186;-88
2022/12/26 11:03:16;;;;;;;1.87;1.77;;;6.10;99.90;;;;;;5006389;28;20185;-91
2022/12/26 11:05:45;;;;;;;4.47;2.30;;;6.20;99.90;;;;;;4990872;28;20200;-89
2022/12/26 11:08:52;;;;;;;3.87;2.20;;;6.10;99.90;;;;;;4987546;28;20196;-90
2022/12/26 11:11:44;;;;;;;2.93;2.37;;;6.70;99.90;;;;;;4984772;28;20237;-89
2022/12/26 11:14:36;;;;;;;2.50;1.47;;;6.20;99.90;;;;;;5005667;28;20198;-91
2022/12/26 11:17:13;;;;;;;3.47;2.43;;;6.70;99.90;;;;;;5002433;28;20703;-90
2022/12/26 11:19:43;;;;;;;3.93;2.67;;;6.10;99.90;;;;;;4986998;28;20201;-89
2022/12/26 11:22:25;;;;;;;1.43;1.33;;;6.10;99.90;;;;;;5007328;28;20186;-89
2022/12/26 11:25:41;;;;;;;1.83;1.73;;;6.30;99.90;;;;;;5008970;28;20282;-92
2022/12/26 11:28:29;;;;;;;2.87;2.50;;;6.20;99.90;;;;;;4992435;28;20196;-92
2022/12/26 11:31:46;;;;;;;3.27;2.27;;;6.20;99.90;;;;;;4990209;28;20189;-92
2022/12/26 11:34:45;;;;;;;5.03;2.40;;;6.30;99.90;;;;;;4993645;28;20655;-91
2022/12/26 11:37:47;;;;;;;4.10;2.63;;;6.20;99.90;;;;;;4976666;28;20643;-88
2022/12/26 11:40:37;;;;;;;4.07;2.50;;;6.00;99.90;;;;;;4976191;28;20217;-90
2022/12/26 11:43:20;;;;;;;2.93;2.57;;;6.40;99.90;;;;;;5011221;28;20197;-90
2022/12/26 11:45:49;;;;;;;2.27;1.80;;;6.50;99.90;;;;;;4987847;28;20182;-88
2022/12/26 11:48:28;;;;;;;4.47;2.40;;;6.50;99.90;;;;;;4987013;28;20202;-91
2022/12/26 11:51:03;;;;;;;2.10;1.97;;;;;;;;;;4985390;28;20173;-90
2022/12/26 11:53:33;;;;;;;3.37;2.60;;;;;;;;;;5006704;28;20264;-92
2022/12/26 11:56:04;;;;;;;4.90;3.30;;;7.00;99.90;;;;;;5005029;28;20232;-90
2022/12/26 11:58:41;;;;;;;3.10;2.17;;;7.20;99.90;;;;;;4989348;28;20229;-91
2022/12/26 12:01:19;;;;;;;3.90;2.50;;;7.10;99.90;;;;;;4993004;28;20192;-92
2022/12/26 12:04:07;;;;;;;3.23;2.63;;;7.00;99.90;;;;;;4992055;28;20189;-92
2022/12/26 12:06:48;;;;;;;3.43;2.13;;;6.00;99.90;;;;;;4991648;28;20170;-91
2022/12/26 12:09:26;;;;;;;6.23;3.20;;;7.00;99.90;;;;;;4984634;28;20185;-92
2022/12/26 12:11:54;;;;;;;6.43;3.57;;;7.40;99.90;;;;;;4998183;28;20209;-89
2022/12/26 12:14:34;;;;;;;3.67;3.37;;;7.20;99.90;;;;;;4980546;28;20185;-91
2022/12/26 12:17:30;;;;;;;;;;;;;;;;;;;;;
2022/12/26 12:19:56;;;;;;;7.47;3.10;;;;;;;;;;4995147;28;20174;-89
2022/12/26 12:22:56;;;;;;;6.90;3.70;;;7.00;99.90;;;;;;4979845;28;20639;-90
2022/12/26 12:25:47;;;;;;;1.73;1.63;;;7.00;99.90;;;;;;4986093;28;20272;-90
2022/12/26 12:28:13;;;;;;;5.33;2.47;;;;;;;;;;4997156;28;20178;-89
2022/12/26 12:30:39;;;;;;;2.50;2.30;;;;;;;;;;4979574;28;20185;-89
2022/12/26 12:33:21;;;;;;;4.80;3.20;;;7.00;99.90;;;;;;4979546;28;20186;-91
2022/12/26 12:36:02;;;;;;;6.13;2.67;;;6.90;99.90;;;;;;4983958;28;20212;-89
2022/12/26 12:38:48;;;;;;;5.00;3.07;;;7.20;99.90;;;;;;4988648;28;20178;-90
2022/12/26 12:41:38;;;;;;;2.53;2.33;;;8.70;99.90;;;;;;4985591;28;20276;-90
2022/12/26 12:44:21;;;;;;;11.27;3.13;;;7.80;99.90;;;;;;4998638;28;20616;-89
2022/12/26 12:47:28;;;;;;;8.97;4.73;;;7.60;99.90;;;;;;4985217;28;20200;-89
2022/12/26 12:50:28;;;;;;;7.37;4.47;;;7.40;99.90;;;;;;4996551;28;20292;-90
2022/12/26 12:53:31;;;;;;;6.30;3.00;;;7.30;99.90;;;;;;4980994;28;20193;-90
2022/12/26 12:56:40;;;;;;;6.53;3.67;;;7.50;99.90;;;;;;4997468;28;20213;-89
2022/12/26 12:59:43;;;;;;;7.60;2.80;;;10.30;99.90;;;;;;4957025;29;20237;-91
2022/12/26 13:02:19;;;;;;;8.60;2.90;;;7.20;99.90;;;;;;4938446;29;20183;-90
2022/12/26 13:04:52;;;;;;;7.37;4.27;;;7.20;99.90;;;;;;4953206;29;20570;-89
2022/12/26 13:07:34;;;;;;;4.50;2.57;;;7.20;99.90;;;;;;4958098;28;20191;-91
2022/12/26 13:10:36;;;;;;;;;;;;;;;;;;;;;
2022/12/26 13:13:39;;;;;;;;;;;;;;;;;;;;;
2022/12/26 13:16:30;;;;;;;13.77;5.60;;;7.00;99.90;;;;;;4962138;28;20229;-89
2022/12/26 13:19:29;;;;;;;8.50;3.90;;;7.00;99.90;;;;;;4982228;28;20612;-90
2022/12/26 13:22:20;;;;;;;5.97;2.80;;;7.00;99.90;;;;;;4983125;28;20194;-91
2022/12/26 13:25:12;;;;;;;7.17;4.57;;;7.20;99.90;;;;;;4989440;28;20265;-93
2022/12/26 13:27:38;;;;;;;7.10;3.27;;;;;;;;;;4983998;28;20204;-89
2022/12/26 13:30:19;;;;;;;4.67;3.17;;;9.40;99.90;;;;;;4977341;28;20186;-90
2022/12/26 13:32:46;;;;;;;7.27;4.07;;;;;;;;;;4990647;28;20673;-90
2022/12/26 13:35:51;;;;;;;5.30;3.30;;;7.20;99.90;;;;;;4991576;28;20236;-90
2022/12/26 13:38:18;;;;;;;4.87;3.43;;;7.20;99.90;;;;;;4979426;28;20186;-89
2022/12/26 13:43:53;;;;;;;12.47;3.80;;;7.30;99.90;;;;;;4997336;28;20301;-89
2022/12/26 13:44:06;;;;;;;6.77;3.87;;;7.40;99.90;;;;;;4998865;28;20185;-91
2022/12/26 13:46:43;;;;;;;5.23;3.37;;;8.00;99.90;;;;;;4995057;28;20186;-89
2022/12/26 13:49:39;;;;;;;6.83;4.20;;;7.30;99.90;;;;;;4990954;28;20185;-90
2022/12/26 13:52:24;;;;;;;;;;;;;;;;;;;;;
2022/12/26 13:54:50;;;;;;;8.07;4.13;;;;;;;;;;4991189;28;20181;-90
2022/12/26 13:57:38;;;;;;;8.57;3.80;;;7.40;99.90;;;;;;4982828;28;20194;-90
2022/12/26 14:00:07;;;;;;;5.17;3.77;;;;;;;;;;4990519;28;20178;-89
2022/12/26 14:03:00;;;;;;;4.93;3.70;;;7.40;99.90;;;;;;4993296;28;20182;-91
2022/12/26 14:06:02;;;;;;;6.20;4.87;;;7.90;99.90;;;;;;4987484;28;20197;-89
2022/12/26 14:08:44;;;;;;;4.83;3.47;;;7.30;99.90;;;;;;4972904;28;20177;-92
2022/12/26 14:11:33;;;;;;;11.47;5.00;;;7.30;99.90;;;;;;4991761;28;20185;-89
2022/12/26 14:14:25;;;;;;;4.60;4.20;;;6.10;99.90;;;;;;4970369;28;20670;-89
2022/12/26 14:17:33;;;;;;;8.80;4.50;;;7.40;99.90;;;;;;4985692;28;20662;-91
2022/12/26 14:20:35;;;;;;;9.20;4.83;;;7.10;99.90;;;;;;4963642;28;20197;-90
2022/12/26 14:23:47;;;;;;;;;;;;;;;;;;;;;
2022/12/26 14:26:14;;;;;;;6.03;4.00;;;;;;;;;;4991964;28;20196;-90
2022/12/26 14:28:53;;;;;;;9.40;5.07;;;6.90;99.90;;;;;;4978198;28;20209;-89
2022/12/26 14:31:57;;;;;;;8.57;3.67;;;7.20;99.90;;;;;;4975280;28;20194;-89
2022/12/26 14:35:05;;;;;;;4.53;3.80;;;6.80;99.90;;;;;;4972786;28;20226;-92
2022/12/26 14:37:34;;;;;;;6.37;3.13;;;;;;;;;;4973653;28;20193;-91
2022/12/26 14:40:18;;;;;;;5.87;3.20;;;6.70;99.90;;;;;;4972259;28;20230;-90
2022/12/26 14:43:10;;;;;;;6.33;4.73;;;6.70;99.90;;;;;;4971613;28;20201;-91
2022/12/26 14:45:37;;;;;;;3.57;2.93;;;;;;;;;;4971292;28;20294;-90
2022/12/26 14:48:15;;;;;;;8.33;5.30;;;6.70;99.90;;;;;;4971079;28;20636;-91
2022/12/26 14:51:16;;;;;;;10.47;4.23;;;6.90;99.90;;;;;;4971478;28;20710;-91
2022/12/26 14:53:55;;;;;;;;;;;;;;;;;;;;;
2022/12/26 14:56:38;;;;;;;5.60;4.23;;;6.90;99.90;;;;;;4968947;28;20231;-91
2022/12/26 14:59:30;;;;;;;6.17;4.67;;;6.50;99.90;;;;;;4987758;28;20317;-92
2022/12/26 15:05:45;;;;;;;7.20;4.67;;;4.70;99.90;;;;;;4947600;28;20202;-90
2022/12/26 15:08:39;;;;;;;5.60;2.73;;;6.50;99.90;;;;;;4948107;28;20217;-90
2022/12/26 15:11:33;;;;;;;8.23;2.83;;;6.60;99.90;;;;;;4966367;28;20233;-90
2022/12/26 15:14:35;;;;;;;;;;;;;;;;;;;;;
2022/12/26 15:17:41;;;;;;;7.87;3.33;;;6.60;99.90;;;;;;4970357;28;20225;-89
2022/12/26 15:20:52;;;;;;;5.63;2.83;;;4.50;99.90;;;;;;4979223;28;20179;-89
2022/12/26 15:23:42;;;;;;;10.97;3.50;;;6.50;99.90;;;;;;4967646;28;20202;-90
2022/12/26 15:26:38;;;;;;;14.07;4.53;;;6.50;99.90;;;;;;4984898;28;20190;-90
2022/12/26 15:29:43;;;;;;;7.50;4.40;;;6.20;99.90;;;;;;4971607;28;20262;-91
2022/12/26 15:32:30;;;;;;;7.60;4.77;;;6.40;99.90;;;;;;4989730;28;20197;-90
2022/12/26 15:35:21;;;;;;;7.97;4.23;;;6.40;99.90;;;;;;4973767;28;20186;-90
2022/12/26 15:38:09;;;;;;;;;;;;;;;;;;;;;
2022/12/26 15:40:50;;;;;;;6.30;4.13;;;6.40;99.90;;;;;;4990629;28;20229;-90
2022/12/26 15:43:16;;;;;;;10.27;5.47;;;;;;;;;;4977259;28;20601;-90
2022/12/26 15:46:13;;;;;;;11.83;4.80;;;6.40;99.90;;;;;;4992674;28;20409;-89
2022/12/26 15:49:03;;;;;;;12.20;4.00;;;7.00;99.90;;;;;;4974976;28;20205;-90
2022/12/26 15:52:04;;;;;;;10.70;4.90;;;6.40;99.90;;;;;;4992689;28;20240;-89
2022/12/26 15:55:11;;;;;;;;;;;;;;;;;;;;;
2022/12/26 16:02:08;;;;;;;11.57;5.40;;;6.30;99.90;;;;;;4930630;29;20767;-90
2022/12/26 16:05:20;;;;;;;11.60;5.67;;;6.30;99.90;;;;;;4915642;29;20200;-90
2022/12/26 16:08:05;;;;;;;11.37;6.60;;;5.60;99.90;;;;;;4907184;29;20665;-90
2022/12/26 16:10:54;;;;;;;8.57;4.53;;;6.30;99.90;;;;;;4990685;28;20689;-89
2022/12/26 16:14:04;;;;;;;;;;;;;;;;;;;;;
2022/12/26 16:16:59;;;;;;;7.67;5.07;;;6.40;99.90;;;;;;4996306;28;20739;-92
2022/12/26 16:19:41;;;;;;;;;;;;;;;;;;;;;
2022/12/26 16:22:58;;;;;;;8.30;4.77;;;6.40;99.90;;;;;;4998469;28;20268;-91
2022/12/26 16:26:24;;;;;;;8.83;4.17;;;7.10;99.90;;;;;;5000184;28;20249;-91
2022/12/26 16:29:00;;;;;;;7.73;4.53;;;6.50;99.90;;;;;;4936895;29;20191;-90
2022/12/26 16:32:05;;;;;;;;;;;;;;;;;;;;;
2022/12/26 16:35:01;;;;;;;7.37;3.10;;;6.50;99.90;;;;;;4951041;29;20226;-91
2022/12/26 16:38:00;;;;;;;;;;;;;;;;;;;;;
2022/12/26 16:40:43;;;;;;;10.43;4.27;;;6.40;99.90;;;;;;5000831;28;20268;-91
2022/12/26 16:43:29;;;;;;;9.50;4.50;;;6.90;99.90;;;;;;5012721;28;20192;-90
2022/12/26 16:46:11;;;;;;;11.40;4.57;;;6.50;99.90;;;;;;5011853;28;20194;-92
2022/12/26 16:48:42;;;;;;;22.33;12.63;;;6.60;99.90;;;;;;5014353;28;20193;-92
2022/12/26 16:51:27;;;;;;;10.13;3.83;;;6.60;99.90;;;;;;4991764;28;20186;-89
2022/12/26 16:53:53;;;;;;;20.33;10.03;;;;;;;;;;5010066;28;20186;-91